sensor_id;sensor_type;location;lat;lon;timestamp;temperature;humidity
16767;DHT22;8501;49.926;8.404;2023-01-01T00:01:40;12.80;99.90
16767;DHT22;8501;49.926;8.404;2023-01-01T00:04:10;12.80;99.90
16767;DHT22;8501;49.926;8.404;2023-01-01T00:06:36;12.80;99.90
16767;DHT22;8501;49.926;8.404;2023-01-01T00:09:02;12.80;99.90
16767;DHT22;8501;49.926;8.404;2023-01-01T00:11:47;12.70;99.90
16767;DHT22;8501;49.926;8.404;2023-01-01T00:14:12;12.70;99.90
16767;DHT22;8501;49.926;8.404;2023-01-01T00:16:38;12.70;99.90
16767;DHT22;8501;49.926;8.404;2023-01-01T00:19:04;12.70;99.90
16767;DHT22;8501;49.926;8.404;2023-01-01T00:21:29;12.70;99.90
16767;DHT22;8501;49.926;8.404;2023-01-01T00:23:55;12.70;99.90
16767;DHT22;8501;49.926;8.404;2023-01-01T00:26:20;12.60;99.90
16767;DHT22;8501;49.926;8.404;2023-01-01T00:28:46;12.60;99.90
16767;DHT22;8501;49.926;8.404;2023-01-01T00:31:20;12.50;99.90
16767;DHT22;8501;49.926;8.404;2023-01-01T00:33:50;12.40;99.90
16767;DHT22;8501;49.926;8.404;2023-01-01T00:36:16;12.40;99.90
16767;DHT22;8501;49.926;8.404;2023-01-01T00:38:43;12.40;99.90
16767;DHT22;8501;49.926;8.404;2023-01-01T00:41:10;12.30;99.90
16767;DHT22;8501;49.926;8.404;2023-01-01T00:43:36;12.40;99.90
16767;DHT22;8501;49.926;8.404;2023-01-01T00:46:03;12.30;99.90
16767;DHT22;8501;49.926;8.404;2023-01-01T00:48:29;12.40;99.90
16767;DHT22;8501;49.926;8.404;2023-01-01T00:50:54;12.40;99.90
16767;DHT22;8501;49.926;8.404;2023-01-01T00:53:20;12.40;99.90
16767;DHT22;8501;49.926;8.404;2023-01-01T00:55:48;12.50;99.90
16767;DHT22;8501;49.926;8.404;2023-01-01T00:58:14;12.50;99.90
16767;DHT22;8501;49.926;8.404;2023-01-01T01:00:40;12.60;99.90
16767;DHT22;8501;49.926;8.404;2023-01-01T01:03:06;12.60;99.90
16767;DHT22;8501;49.926;8.404;2023-01-01T01:05:32;12.60;99.90
16767;DHT22;8501;49.926;8.404;2023-01-01T01:07:58;12.80;99.90
16767;DHT22;8501;49.926;8.404;2023-01-01T01:10:24;12.70;99.90
16767;DHT22;8501;49.926;8.404;2023-01-01T01:12:51;12.80;99.90
16767;DHT22;8501;49.926;8.404;2023-01-01T01:15:16;12.70;99.90
16767;DHT22;8501;49.926;8.404;2023-01-01T01:17:42;12.70;99.90
16767;DHT22;8501;49.926;8.404;2023-01-01T01:20:08;12.80;99.90
16767;DHT22;8501;49.926;8.404;2023-01-01T01:22:34;12.80;99.90
16767;DHT22;8501;49.926;8.404;2023-01-01T01:24:59;12.80;99.90
16767;DHT22;8501;49.926;8.404;2023-01-01T01:27:26;12.70;99.90
16767;DHT22;8501;49.926;8.404;2023-01-01T01:29:52;12.70;99.90
16767;DHT22;8501;49.926;8.404;2023-01-01T01:32:17;12.70;99.90
16767;DHT22;8501;49.926;8.404;2023-01-01T01:34:43;12.70;99.90
16767;DHT22;8501;49.926;8.404;2023-01-01T01:37:09;12.60;99.90
16767;DHT22;8501;49.926;8.404;2023-01-01T01:39:34;12.50;99.90
16767;DHT22;8501;49.926;8.404;2023-01-01T01:42:00;12.40;99.90
16767;DHT22;8501;49.926;8.404;2023-01-01T01:44:49;12.40;99.90
16767;DHT22;8501;49.926;8.404;2023-01-01T01:47:36;12.30;99.90
16767;DHT22;8501;49.926;8.404;2023-01-01T01:50:13;12.30;99.90
16767;DHT22;8501;49.926;8.404;2023-01-01T01:55:25;12.20;99.90
16767;DHT22;8501;49.926;8.404;2023-01-01T01:57:53;12.00;99.90
16767;DHT22;8501;49.926;8.404;2023-01-01T02:00:19;12.00;99.90
16767;DHT22;8501;49.926;8.404;2023-01-01T02:03:02;12.00;99.90
16767;DHT22;8501;49.926;8.404;2023-01-01T02:05:30;11.90;99.90
16767;DHT22;8501;49.926;8.404;2023-01-01T02:07:56;11.90;99.90
16767;DHT22;8501;49.926;8.404;2023-01-01T02:10:23;11.80;99.90
16767;DHT22;8501;49.926;8.404;2023-01-01T02:12:49;11.70;99.90
16767;DHT22;8501;49.926;8.404;2023-01-01T02:15:14;11.70;99.90
16767;DHT22;8501;49.926;8.404;2023-01-01T02:17:58;11.70;99.90
16767;DHT22;8501;49.926;8.404;2023-01-01T02:20:49;11.70;99.90
16767;DHT22;8501;49.926;8.404;2023-01-01T02:23:37;11.70;99.90
16767;DHT22;8501;49.926;8.404;2023-01-01T02:31:46;11.60;99.90
16767;DHT22;8501;49.926;8.404;2023-01-01T02:34:16;11.70;99.90
16767;DHT22;8501;49.926;8.404;2023-01-01T02:36:49;11.60;99.90
16767;DHT22;8501;49.926;8.404;2023-01-01T02:39:17;11.60;99.90
16767;DHT22;8501;49.926;8.404;2023-01-01T02:41:47;11.60;99.90
16767;DHT22;8501;49.926;8.404;2023-01-01T02:44:14;11.60;99.90
16767;DHT22;8501;49.926;8.404;2023-01-01T02:46:40;11.60;99.90
16767;DHT22;8501;49.926;8.404;2023-01-01T02:49:06;11.60;99.90
16767;DHT22;8501;49.926;8.404;2023-01-01T02:51:34;11.60;99.90
16767;DHT22;8501;49.926;8.404;2023-01-01T02:56:49;11.70;99.90
16767;DHT22;8501;49.926;8.404;2023-01-01T03:02:35;11.70;99.90
16767;DHT22;8501;49.926;8.404;2023-01-01T03:05:30;11.70;99.90
16767;DHT22;8501;49.926;8.404;2023-01-01T03:08:12;11.70;99.90
16767;DHT22;8501;49.926;8.404;2023-01-01T03:10:54;11.70;99.90
16767;DHT22;8501;49.926;8.404;2023-01-01T03:13:35;11.70;99.90
16767;DHT22;8501;49.926;8.404;2023-01-01T03:19:17;11.60;99.90
16767;DHT22;8501;49.926;8.404;2023-01-01T03:24:50;11.50;99.90
16767;DHT22;8501;49.926;8.404;2023-01-01T03:27:47;11.50;99.90
16767;DHT22;8501;49.926;8.404;2023-01-01T03:30:14;11.50;99.90
16767;DHT22;8501;49.926;8.404;2023-01-01T03:32:44;11.50;99.90
16767;DHT22;8501;49.926;8.404;2023-01-01T03:38:38;11.50;99.90
16767;DHT22;8501;49.926;8.404;2023-01-01T03:41:25;11.50;99.90
16767;DHT22;8501;49.926;8.404;2023-01-01T03:46:30;11.50;99.90
16767;DHT22;8501;49.926;8.404;2023-01-01T03:48:57;11.50;99.90
16767;DHT22;8501;49.926;8.404;2023-01-01T04:00:34;11.50;99.90
16767;DHT22;8501;49.926;8.404;2023-01-01T04:03:15;11.50;99.90
16767;DHT22;8501;49.926;8.404;2023-01-01T04:05:42;11.40;99.90
16767;DHT22;8501;49.926;8.404;2023-01-01T04:08:09;11.40;99.90
16767;DHT22;8501;49.926;8.404;2023-01-01T04:10:40;11.40;99.90
16767;DHT22;8501;49.926;8.404;2023-01-01T04:13:07;11.30;99.90
16767;DHT22;8501;49.926;8.404;2023-01-01T04:15:33;11.40;99.90
16767;DHT22;8501;49.926;8.404;2023-01-01T04:18:00;11.40;99.90
16767;DHT22;8501;49.926;8.404;2023-01-01T04:20:26;11.40;99.90
16767;DHT22;8501;49.926;8.404;2023-01-01T04:22:55;11.40;99.90
16767;DHT22;8501;49.926;8.404;2023-01-01T04:25:21;11.40;99.90
16767;DHT22;8501;49.926;8.404;2023-01-01T04:27:47;11.30;99.90
16767;DHT22;8501;49.926;8.404;2023-01-01T04:30:13;11.20;99.90
16767;DHT22;8501;49.926;8.404;2023-01-01T04:32:39;11.20;99.90
16767;DHT22;8501;49.926;8.404;2023-01-01T04:35:06;11.20;99.90
16767;DHT22;8501;49.926;8.404;2023-01-01T04:37:35;11.10;99.90
16767;DHT22;8501;49.926;8.404;2023-01-01T04:40:01;11.10;99.90
16767;DHT22;8501;49.926;8.404;2023-01-01T04:42:26;11.10;99.90
16767;DHT22;8501;49.926;8.404;2023-01-01T04:44:52;11.00;99.90
16767;DHT22;8501;49.926;8.404;2023-01-01T04:47:17;11.00;99.90
16767;DHT22;8501;49.926;8.404;2023-01-01T04:49:43;11.00;99.90
16767;DHT22;8501;49.926;8.404;2023-01-01T04:52:08;11.10;99.90
16767;DHT22;8501;49.926;8.404;2023-01-01T04:54:34;11.00;99.90
16767;DHT22;8501;49.926;8.404;2023-01-01T04:57:00;11.10;99.90
16767;DHT22;8501;49.926;8.404;2023-01-01T04:59:25;11.10;99.90
16767;DHT22;8501;49.926;8.404;2023-01-01T05:01:51;11.10;99.90
16767;DHT22;8501;49.926;8.404;2023-01-01T05:04:17;11.00;99.90
16767;DHT22;8501;49.926;8.404;2023-01-01T05:06:42;11.00;99.90
16767;DHT22;8501;49.926;8.404;2023-01-01T05:09:09;10.90;99.90
16767;DHT22;8501;49.926;8.404;2023-01-01T05:11:35;10.90;99.90
16767;DHT22;8501;49.926;8.404;2023-01-01T05:14:01;10.90;99.90
16767;DHT22;8501;49.926;8.404;2023-01-01T05:16:33;10.90;99.90
16767;DHT22;8501;49.926;8.404;2023-01-01T05:18:59;10.90;99.90
16767;DHT22;8501;49.926;8.404;2023-01-01T05:21:27;10.80;99.90
16767;DHT22;8501;49.926;8.404;2023-01-01T05:23:57;10.80;99.90
16767;DHT22;8501;49.926;8.404;2023-01-01T05:26:29;10.70;99.90
16767;DHT22;8501;49.926;8.404;2023-01-01T05:28:55;10.70;99.90
16767;DHT22;8501;49.926;8.404;2023-01-01T05:31:23;10.70;99.90
16767;DHT22;8501;49.926;8.404;2023-01-01T05:33:49;10.60;99.90
16767;DHT22;8501;49.926;8.404;2023-01-01T05:36:19;10.60;99.90
16767;DHT22;8501;49.926;8.404;2023-01-01T05:38:44;10.60;99.90
16767;DHT22;8501;49.926;8.404;2023-01-01T05:41:12;10.60;99.90
16767;DHT22;8501;49.926;8.404;2023-01-01T05:43:38;10.50;99.90
16767;DHT22;8501;49.926;8.404;2023-01-01T05:46:06;10.40;99.90
16767;DHT22;8501;49.926;8.404;2023-01-01T05:48:33;10.40;99.90
16767;DHT22;8501;49.926;8.404;2023-01-01T05:51:05;10.40;99.90
16767;DHT22;8501;49.926;8.404;2023-01-01T05:53:31;10.40;99.90
16767;DHT22;8501;49.926;8.404;2023-01-01T05:55:57;10.40;99.90
16767;DHT22;8501;49.926;8.404;2023-01-01T05:58:24;10.30;99.90
16767;DHT22;8501;49.926;8.404;2023-01-01T06:00:50;10.30;99.90
16767;DHT22;8501;49.926;8.404;2023-01-01T06:03:15;10.30;99.90
16767;DHT22;8501;49.926;8.404;2023-01-01T06:05:41;10.30;99.90
16767;DHT22;8501;49.926;8.404;2023-01-01T06:08:07;10.40;99.90
16767;DHT22;8501;49.926;8.404;2023-01-01T06:10:32;10.40;99.90
16767;DHT22;8501;49.926;8.404;2023-01-01T06:12:58;10.40;99.90
16767;DHT22;8501;49.926;8.404;2023-01-01T06:15:24;10.40;99.90
16767;DHT22;8501;49.926;8.404;2023-01-01T06:17:49;10.50;99.90
16767;DHT22;8501;49.926;8.404;2023-01-01T06:20:15;10.50;99.90
16767;DHT22;8501;49.926;8.404;2023-01-01T06:22:41;10.50;99.90
16767;DHT22;8501;49.926;8.404;2023-01-01T06:25:07;10.40;99.90
16767;DHT22;8501;49.926;8.404;2023-01-01T06:27:34;10.40;99.90
16767;DHT22;8501;49.926;8.404;2023-01-01T06:30:00;10.30;99.90
16767;DHT22;8501;49.926;8.404;2023-01-01T06:32:26;10.30;99.90
16767;DHT22;8501;49.926;8.404;2023-01-01T06:34:51;10.20;99.90
16767;DHT22;8501;49.926;8.404;2023-01-01T06:37:17;10.30;99.90
16767;DHT22;8501;49.926;8.404;2023-01-01T06:39:42;10.20;99.90
16767;DHT22;8501;49.926;8.404;2023-01-01T06:42:08;10.10;99.90
16767;DHT22;8501;49.926;8.404;2023-01-01T06:44:33;10.00;99.90
16767;DHT22;8501;49.926;8.404;2023-01-01T06:46:59;10.10;99.90
16767;DHT22;8501;49.926;8.404;2023-01-01T06:49:24;10.00;99.90
16767;DHT22;8501;49.926;8.404;2023-01-01T06:51:57;10.00;99.90
16767;DHT22;8501;49.926;8.404;2023-01-01T06:54:22;9.90;99.90
16767;DHT22;8501;49.926;8.404;2023-01-01T06:56:48;9.90;99.90
16767;DHT22;8501;49.926;8.404;2023-01-01T06:59:15;9.90;99.90
16767;DHT22;8501;49.926;8.404;2023-01-01T07:01:40;9.90;99.90
16767;DHT22;8501;49.926;8.404;2023-01-01T07:04:11;9.90;99.90
16767;DHT22;8501;49.926;8.404;2023-01-01T07:06:37;9.90;99.90
16767;DHT22;8501;49.926;8.404;2023-01-01T07:09:04;10.00;99.90
16767;DHT22;8501;49.926;8.404;2023-01-01T07:11:30;10.10;99.90
16767;DHT22;8501;49.926;8.404;2023-01-01T07:13:55;10.00;99.90
16767;DHT22;8501;49.926;8.404;2023-01-01T07:16:22;10.00;99.90
16767;DHT22;8501;49.926;8.404;2023-01-01T07:18:48;10.00;99.90
16767;DHT22;8501;49.926;8.404;2023-01-01T07:21:39;10.00;99.90
16767;DHT22;8501;49.926;8.404;2023-01-01T07:24:07;10.10;99.90
16767;DHT22;8501;49.926;8.404;2023-01-01T07:26:34;10.10;99.90
16767;DHT22;8501;49.926;8.404;2023-01-01T07:29:00;10.00;99.90
16767;DHT22;8501;49.926;8.404;2023-01-01T07:31:25;10.10;99.90
16767;DHT22;8501;49.926;8.404;2023-01-01T07:33:51;10.00;99.90
16767;DHT22;8501;49.926;8.404;2023-01-01T07:36:16;10.00;99.90
16767;DHT22;8501;49.926;8.404;2023-01-01T07:38:42;10.10;99.90
16767;DHT22;8501;49.926;8.404;2023-01-01T07:41:07;10.20;99.90
16767;DHT22;8501;49.926;8.404;2023-01-01T07:43:33;10.20;99.90
16767;DHT22;8501;49.926;8.404;2023-01-01T07:45:58;10.20;99.90
16767;DHT22;8501;49.926;8.404;2023-01-01T07:48:24;10.10;99.90
16767;DHT22;8501;49.926;8.404;2023-01-01T07:50:50;10.20;99.90
16767;DHT22;8501;49.926;8.404;2023-01-01T07:53:16;10.20;99.90
16767;DHT22;8501;49.926;8.404;2023-01-01T07:55:41;10.30;99.90
16767;DHT22;8501;49.926;8.404;2023-01-01T07:58:08;10.30;99.90
16767;DHT22;8501;49.926;8.404;2023-01-01T08:00:34;10.40;99.90
16767;DHT22;8501;49.926;8.404;2023-01-01T08:02:59;10.60;99.90
16767;DHT22;8501;49.926;8.404;2023-01-01T08:05:25;10.70;99.90
16767;DHT22;8501;49.926;8.404;2023-01-01T08:07:50;10.80;99.90
16767;DHT22;8501;49.926;8.404;2023-01-01T08:10:17;10.80;99.90
16767;DHT22;8501;49.926;8.404;2023-01-01T08:12:44;11.00;99.90
16767;DHT22;8501;49.926;8.404;2023-01-01T08:15:10;11.10;99.90
16767;DHT22;8501;49.926;8.404;2023-01-01T08:17:36;11.20;99.90
16767;DHT22;8501;49.926;8.404;2023-01-01T08:20:01;11.20;99.90
16767;DHT22;8501;49.926;8.404;2023-01-01T08:22:27;11.20;99.90
16767;DHT22;8501;49.926;8.404;2023-01-01T08:24:53;11.30;99.90
16767;DHT22;8501;49.926;8.404;2023-01-01T08:27:18;11.40;99.90
16767;DHT22;8501;49.926;8.404;2023-01-01T08:29:44;11.40;99.90
16767;DHT22;8501;49.926;8.404;2023-01-01T08:32:11;11.40;99.90
16767;DHT22;8501;49.926;8.404;2023-01-01T08:34:37;11.40;99.90
16767;DHT22;8501;49.926;8.404;2023-01-01T08:37:02;11.40;99.90
16767;DHT22;8501;49.926;8.404;2023-01-01T08:39:28;11.50;99.90
16767;DHT22;8501;49.926;8.404;2023-01-01T08:41:53;11.50;99.90
16767;DHT22;8501;49.926;8.404;2023-01-01T08:44:19;11.70;99.90
16767;DHT22;8501;49.926;8.404;2023-01-01T08:46:45;11.70;99.90
16767;DHT22;8501;49.926;8.404;2023-01-01T08:49:10;11.70;99.90
16767;DHT22;8501;49.926;8.404;2023-01-01T08:51:36;11.70;99.90
16767;DHT22;8501;49.926;8.404;2023-01-01T08:54:02;11.70;99.90
16767;DHT22;8501;49.926;8.404;2023-01-01T08:56:27;11.90;99.90
16767;DHT22;8501;49.926;8.404;2023-01-01T08:58:53;11.90;99.90
16767;DHT22;8501;49.926;8.404;2023-01-01T09:01:19;11.90;99.90
16767;DHT22;8501;49.926;8.404;2023-01-01T09:03:46;12.00;99.90
16767;DHT22;8501;49.926;8.404;2023-01-01T09:06:12;12.00;99.90
16767;DHT22;8501;49.926;8.404;2023-01-01T09:08:38;12.00;99.90
16767;DHT22;8501;49.926;8.404;2023-01-01T09:11:04;12.00;99.90
16767;DHT22;8501;49.926;8.404;2023-01-01T09:13:29;12.10;99.90
16767;DHT22;8501;49.926;8.404;2023-01-01T09:15:56;12.10;99.90
16767;DHT22;8501;49.926;8.404;2023-01-01T09:18:21;12.10;99.90
16767;DHT22;8501;49.926;8.404;2023-01-01T09:20:47;12.20;99.90
16767;DHT22;8501;49.926;8.404;2023-01-01T09:23:13;12.30;99.90
16767;DHT22;8501;49.926;8.404;2023-01-01T09:25:38;12.40;99.90
16767;DHT22;8501;49.926;8.404;2023-01-01T09:28:07;12.40;99.90
16767;DHT22;8501;49.926;8.404;2023-01-01T09:30:34;12.40;99.90
16767;DHT22;8501;49.926;8.404;2023-01-01T09:33:00;12.30;99.90
16767;DHT22;8501;49.926;8.404;2023-01-01T09:35:26;12.30;99.90
16767;DHT22;8501;49.926;8.404;2023-01-01T09:37:51;12.40;99.90
16767;DHT22;8501;49.926;8.404;2023-01-01T09:40:59;12.40;99.90
16767;DHT22;8501;49.926;8.404;2023-01-01T09:43:41;12.40;99.90
16767;DHT22;8501;49.926;8.404;2023-01-01T09:46:11;12.50;99.90
16767;DHT22;8501;49.926;8.404;2023-01-01T09:48:55;12.50;99.90
16767;DHT22;8501;49.926;8.404;2023-01-01T09:51:23;12.50;99.90
16767;DHT22;8501;49.926;8.404;2023-01-01T09:56:21;12.60;99.90
16767;DHT22;8501;49.926;8.404;2023-01-01T09:58:48;12.60;99.90
16767;DHT22;8501;49.926;8.404;2023-01-01T10:07:11;12.60;99.90
16767;DHT22;8501;49.926;8.404;2023-01-01T10:15:16;12.70;99.90
16767;DHT22;8501;49.926;8.404;2023-01-01T10:17:46;12.80;99.90
16767;DHT22;8501;49.926;8.404;2023-01-01T10:20:23;12.80;99.90
16767;DHT22;8501;49.926;8.404;2023-01-01T10:22:56;12.80;99.90
16767;DHT22;8501;49.926;8.404;2023-01-01T10:25:27;12.90;99.90
16767;DHT22;8501;49.926;8.404;2023-01-01T10:30:43;13.00;99.90
16767;DHT22;8501;49.926;8.404;2023-01-01T10:33:13;13.00;99.90
16767;DHT22;8501;49.926;8.404;2023-01-01T10:35:42;13.00;99.90
16767;DHT22;8501;49.926;8.404;2023-01-01T10:38:16;13.00;99.90
16767;DHT22;8501;49.926;8.404;2023-01-01T10:40:45;13.00;99.90
16767;DHT22;8501;49.926;8.404;2023-01-01T10:43:11;13.00;99.90
16767;DHT22;8501;49.926;8.404;2023-01-01T10:45:53;13.00;99.90
16767;DHT22;8501;49.926;8.404;2023-01-01T10:48:20;13.00;99.90
16767;DHT22;8501;49.926;8.404;2023-01-01T10:53:24;13.00;99.90
16767;DHT22;8501;49.926;8.404;2023-01-01T10:55:57;13.00;99.90
16767;DHT22;8501;49.926;8.404;2023-01-01T10:58:46;13.00;99.90
16767;DHT22;8501;49.926;8.404;2023-01-01T11:01:25;13.10;99.90
16767;DHT22;8501;49.926;8.404;2023-01-01T11:03:56;13.20;99.90
16767;DHT22;8501;49.926;8.404;2023-01-01T11:06:40;13.20;99.90
16767;DHT22;8501;49.926;8.404;2023-01-01T11:09:26;13.20;99.90
16767;DHT22;8501;49.926;8.404;2023-01-01T11:12:00;13.30;99.90
16767;DHT22;8501;49.926;8.404;2023-01-01T11:14:32;13.30;99.90
16767;DHT22;8501;49.926;8.404;2023-01-01T11:17:00;13.40;99.90
16767;DHT22;8501;49.926;8.404;2023-01-01T11:21:59;13.40;99.90
16767;DHT22;8501;49.926;8.404;2023-01-01T11:24:27;13.40;99.90
16767;DHT22;8501;49.926;8.404;2023-01-01T11:27:17;13.40;99.90
16767;DHT22;8501;49.926;8.404;2023-01-01T11:29:44;13.40;99.90
16767;DHT22;8501;49.926;8.404;2023-01-01T11:32:21;13.40;99.90
16767;DHT22;8501;49.926;8.404;2023-01-01T11:34:57;13.40;99.90
16767;DHT22;8501;49.926;8.404;2023-01-01T11:37:29;13.40;99.90
16767;DHT22;8501;49.926;8.404;2023-01-01T11:39:59;13.40;99.90
16767;DHT22;8501;49.926;8.404;2023-01-01T11:42:27;13.50;99.90
16767;DHT22;8501;49.926;8.404;2023-01-01T11:44:57;13.50;99.90
16767;DHT22;8501;49.926;8.404;2023-01-01T11:47:32;13.50;99.90
16767;DHT22;8501;49.926;8.404;2023-01-01T11:52:40;13.60;99.90
16767;DHT22;8501;49.926;8.404;2023-01-01T11:55:24;13.50;99.90
16767;DHT22;8501;49.926;8.404;2023-01-01T12:00:46;13.60;99.90
16767;DHT22;8501;49.926;8.404;2023-01-01T12:06:37;13.60;99.90
16767;DHT22;8501;49.926;8.404;2023-01-01T12:09:01;13.60;99.90
16767;DHT22;8501;49.926;8.404;2023-01-01T12:11:51;13.60;99.90
16767;DHT22;8501;49.926;8.404;2023-01-01T12:17:01;13.70;99.90
16767;DHT22;8501;49.926;8.404;2023-01-01T12:19:39;13.70;99.90
16767;DHT22;8501;49.926;8.404;2023-01-01T12:22:17;13.70;99.90
16767;DHT22;8501;49.926;8.404;2023-01-01T12:24:46;13.70;99.90
16767;DHT22;8501;49.926;8.404;2023-01-01T12:29:56;13.70;99.90
16767;DHT22;8501;49.926;8.404;2023-01-01T12:35:55;13.60;99.90
16767;DHT22;8501;49.926;8.404;2023-01-01T12:41:36;13.70;99.90
16767;DHT22;8501;49.926;8.404;2023-01-01T12:47:00;13.70;99.90
16767;DHT22;8501;49.926;8.404;2023-01-01T12:52:41;13.70;99.90
16767;DHT22;8501;49.926;8.404;2023-01-01T12:58:11;13.60;99.90
16767;DHT22;8501;49.926;8.404;2023-01-01T13:00:42;13.60;99.90
16767;DHT22;8501;49.926;8.404;2023-01-01T13:03:18;13.70;99.90
16767;DHT22;8501;49.926;8.404;2023-01-01T13:05:52;13.60;99.90
16767;DHT22;8501;49.926;8.404;2023-01-01T13:08:19;13.60;99.90
16767;DHT22;8501;49.926;8.404;2023-01-01T13:10:48;13.60;99.90
16767;DHT22;8501;49.926;8.404;2023-01-01T13:13:15;13.60;99.90
16767;DHT22;8501;49.926;8.404;2023-01-01T13:15:48;13.60;99.90
16767;DHT22;8501;49.926;8.404;2023-01-01T13:20:41;13.50;99.90
16767;DHT22;8501;49.926;8.404;2023-01-01T13:34:38;13.50;99.90
16767;DHT22;8501;49.926;8.404;2023-01-01T13:39:59;13.50;99.90
16767;DHT22;8501;49.926;8.404;2023-01-01T13:42:45;13.50;99.90
16767;DHT22;8501;49.926;8.404;2023-01-01T13:45:37;13.50;99.90
16767;DHT22;8501;49.926;8.404;2023-01-01T13:48:33;13.40;99.90
16767;DHT22;8501;49.926;8.404;2023-01-01T13:51:33;13.40;99.90
16767;DHT22;8501;49.926;8.404;2023-01-01T14:00:18;13.40;99.90
16767;DHT22;8501;49.926;8.404;2023-01-01T14:02:57;13.40;99.90
16767;DHT22;8501;49.926;8.404;2023-01-01T14:05:37;13.30;99.90
16767;DHT22;8501;49.926;8.404;2023-01-01T14:10:53;13.40;99.90
16767;DHT22;8501;49.926;8.404;2023-01-01T14:13:18;13.30;99.90
16767;DHT22;8501;49.926;8.404;2023-01-01T14:15:54;13.30;99.90
16767;DHT22;8501;49.926;8.404;2023-01-01T14:18:32;13.30;99.90
16767;DHT22;8501;49.926;8.404;2023-01-01T14:20:59;13.30;99.90
16767;DHT22;8501;49.926;8.404;2023-01-01T14:23:37;13.30;99.90
16767;DHT22;8501;49.926;8.404;2023-01-01T14:26:08;13.30;99.90
16767;DHT22;8501;49.926;8.404;2023-01-01T14:28:35;13.30;99.90
16767;DHT22;8501;49.926;8.404;2023-01-01T14:31:18;13.30;99.90
16767;DHT22;8501;49.926;8.404;2023-01-01T14:33:45;13.30;99.90
16767;DHT22;8501;49.926;8.404;2023-01-01T14:36:21;13.30;99.90
16767;DHT22;8501;49.926;8.404;2023-01-01T14:38:52;13.30;99.90
16767;DHT22;8501;49.926;8.404;2023-01-01T14:41:28;13.30;99.90
16767;DHT22;8501;49.926;8.404;2023-01-01T14:43:57;13.30;99.90
16767;DHT22;8501;49.926;8.404;2023-01-01T14:46:27;13.20;99.90
16767;DHT22;8501;49.926;8.404;2023-01-01T14:48:58;13.20;99.90
16767;DHT22;8501;49.926;8.404;2023-01-01T14:51:29;13.20;99.90
16767;DHT22;8501;49.926;8.404;2023-01-01T14:54:01;13.20;99.90
16767;DHT22;8501;49.926;8.404;2023-01-01T14:56:30;13.20;99.90
16767;DHT22;8501;49.926;8.404;2023-01-01T14:59:26;13.20;99.90
16767;DHT22;8501;49.926;8.404;2023-01-01T15:02:01;13.20;99.90
16767;DHT22;8501;49.926;8.404;2023-01-01T15:04:27;13.30;99.90
16767;DHT22;8501;49.926;8.404;2023-01-01T15:06:54;13.30;99.90
16767;DHT22;8501;49.926;8.404;2023-01-01T15:09:20;13.30;99.90
16767;DHT22;8501;49.926;8.404;2023-01-01T15:11:46;13.30;99.90
16767;DHT22;8501;49.926;8.404;2023-01-01T15:17:04;13.30;99.90
16767;DHT22;8501;49.926;8.404;2023-01-01T15:19:30;13.30;99.90
16767;DHT22;8501;49.926;8.404;2023-01-01T15:21:56;13.20;99.90
16767;DHT22;8501;49.926;8.404;2023-01-01T15:24:22;13.20;99.90
16767;DHT22;8501;49.926;8.404;2023-01-01T15:26:54;13.10;99.90
16767;DHT22;8501;49.926;8.404;2023-01-01T15:29:26;13.10;99.90
16767;DHT22;8501;49.926;8.404;2023-01-01T15:32:07;13.10;99.90
16767;DHT22;8501;49.926;8.404;2023-01-01T15:34:39;13.10;99.90
16767;DHT22;8501;49.926;8.404;2023-01-01T15:37:14;13.10;99.90
16767;DHT22;8501;49.926;8.404;2023-01-01T15:39:52;13.00;99.90
16767;DHT22;8501;49.926;8.404;2023-01-01T15:42:30;13.00;99.90
16767;DHT22;8501;49.926;8.404;2023-01-01T15:45:27;13.00;99.90
16767;DHT22;8501;49.926;8.404;2023-01-01T15:53:19;13.00;99.90
16767;DHT22;8501;49.926;8.404;2023-01-01T15:59:06;12.90;99.90
16767;DHT22;8501;49.926;8.404;2023-01-01T16:01:39;12.90;99.90
16767;DHT22;8501;49.926;8.404;2023-01-01T16:04:24;12.90;99.90
16767;DHT22;8501;49.926;8.404;2023-01-01T16:06:53;12.80;99.90
16767;DHT22;8501;49.926;8.404;2023-01-01T16:09:20;12.80;99.90
16767;DHT22;8501;49.926;8.404;2023-01-01T16:11:50;12.80;99.90
16767;DHT22;8501;49.926;8.404;2023-01-01T16:14:17;12.70;99.90
16767;DHT22;8501;49.926;8.404;2023-01-01T16:16:49;12.70;99.90
16767;DHT22;8501;49.926;8.404;2023-01-01T16:19:16;12.70;99.90
16767;DHT22;8501;49.926;8.404;2023-01-01T16:21:42;12.70;99.90
16767;DHT22;8501;49.926;8.404;2023-01-01T16:24:14;12.70;99.90
16767;DHT22;8501;49.926;8.404;2023-01-01T16:26:41;12.70;99.90
16767;DHT22;8501;49.926;8.404;2023-01-01T16:29:06;12.70;99.90
16767;DHT22;8501;49.926;8.404;2023-01-01T16:31:32;12.70;99.90
16767;DHT22;8501;49.926;8.404;2023-01-01T16:33:58;12.60;99.90
16767;DHT22;8501;49.926;8.404;2023-01-01T16:36:25;12.60;99.90
16767;DHT22;8501;49.926;8.404;2023-01-01T16:38:56;12.60;99.90
16767;DHT22;8501;49.926;8.404;2023-01-01T16:41:23;12.60;99.90
16767;DHT22;8501;49.926;8.404;2023-01-01T16:43:49;12.60;99.90
16767;DHT22;8501;49.926;8.404;2023-01-01T16:46:15;12.60;99.90
16767;DHT22;8501;49.926;8.404;2023-01-01T16:48:41;12.60;99.90
16767;DHT22;8501;49.926;8.404;2023-01-01T16:51:18;12.50;99.90
16767;DHT22;8501;49.926;8.404;2023-01-01T16:53:44;12.60;99.90
16767;DHT22;8501;49.926;8.404;2023-01-01T16:56:10;12.50;99.90
16767;DHT22;8501;49.926;8.404;2023-01-01T16:58:36;12.50;99.90
16767;DHT22;8501;49.926;8.404;2023-01-01T17:01:02;12.50;99.90
16767;DHT22;8501;49.926;8.404;2023-01-01T17:03:27;12.50;99.90
16767;DHT22;8501;49.926;8.404;2023-01-01T17:05:53;12.50;99.90
16767;DHT22;8501;49.926;8.404;2023-01-01T17:08:18;12.50;99.90
16767;DHT22;8501;49.926;8.404;2023-01-01T17:10:44;12.50;99.90
16767;DHT22;8501;49.926;8.404;2023-01-01T17:13:10;12.50;99.90
16767;DHT22;8501;49.926;8.404;2023-01-01T17:15:36;12.50;99.90
16767;DHT22;8501;49.926;8.404;2023-01-01T17:18:01;12.50;99.90
16767;DHT22;8501;49.926;8.404;2023-01-01T17:20:27;12.50;99.90
16767;DHT22;8501;49.926;8.404;2023-01-01T17:22:52;12.50;99.90
16767;DHT22;8501;49.926;8.404;2023-01-01T17:25:18;12.40;99.90
16767;DHT22;8501;49.926;8.404;2023-01-01T17:27:43;12.40;99.90
16767;DHT22;8501;49.926;8.404;2023-01-01T17:30:12;12.50;99.90
16767;DHT22;8501;49.926;8.404;2023-01-01T17:32:38;12.40;99.90
16767;DHT22;8501;49.926;8.404;2023-01-01T17:35:04;12.50;99.90
16767;DHT22;8501;49.926;8.404;2023-01-01T17:37:30;12.50;99.90
16767;DHT22;8501;49.926;8.404;2023-01-01T17:39:57;12.40;99.90
16767;DHT22;8501;49.926;8.404;2023-01-01T17:42:23;12.40;99.90
16767;DHT22;8501;49.926;8.404;2023-01-01T17:44:48;12.40;99.90
16767;DHT22;8501;49.926;8.404;2023-01-01T17:47:14;12.40;99.90
16767;DHT22;8501;49.926;8.404;2023-01-01T17:49:41;12.50;99.90
16767;DHT22;8501;49.926;8.404;2023-01-01T17:52:06;12.40;99.90
16767;DHT22;8501;49.926;8.404;2023-01-01T17:54:32;12.40;99.90
16767;DHT22;8501;49.926;8.404;2023-01-01T17:56:57;12.40;99.90
16767;DHT22;8501;49.926;8.404;2023-01-01T17:59:28;12.40;99.90
16767;DHT22;8501;49.926;8.404;2023-01-01T18:01:54;12.30;99.90
16767;DHT22;8501;49.926;8.404;2023-01-01T18:04:19;12.30;99.90
16767;DHT22;8501;49.926;8.404;2023-01-01T18:06:45;12.30;99.90